createdAt,value
2023-03-12T00:01:22.230Z,99785.09
2023-03-12T00:06:30.243Z,99778.28
2023-03-12T00:11:36.786Z,99774.88
2023-03-12T00:16:43.591Z,99769.66
2023-03-12T00:21:51.885Z,99769.69
2023-03-12T00:26:58.615Z,99776.50
2023-03-12T00:32:05.310Z,99763.72
2023-03-12T00:37:13.439Z,99762.03
2023-03-12T00:42:21.102Z,99759.47
2023-03-12T00:47:27.615Z,99748.38
2023-03-12T00:52:35.776Z,99756.94
2023-03-12T00:57:42.373Z,99753.50
2023-03-12T01:02:49.045Z,99746.69
2023-03-12T01:07:57.146Z,99734.72
2023-03-12T01:13:03.814Z,99732.16
2023-03-12T01:18:10.350Z,99733.88
2023-03-12T01:23:18.538Z,99716.78
2023-03-12T01:28:26.083Z,99717.66
2023-03-12T01:33:32.557Z,99715.09
2023-03-12T01:38:40.515Z,99713.41
2023-03-12T01:43:47.448Z,99713.44
2023-03-12T01:49:01.384Z,99705.72
2023-03-12T01:54:17.480Z,99708.31
2023-03-12T01:59:32.281Z,99703.16
2023-03-12T02:04:41.673Z,99711.69
2023-03-12T02:09:52.646Z,99713.38
2023-03-12T02:14:59.487Z,99708.25
2023-03-12T02:20:18.700Z,99712.56
2023-03-12T02:25:37.055Z,99702.28
2023-03-12T02:30:48.076Z,99696.31
2023-03-12T02:35:56.406Z,99722.75
2023-03-12T02:41:15.404Z,99718.50
2023-03-12T02:46:23.131Z,99725.34
2023-03-12T02:51:29.980Z,99727.91
2023-03-12T02:56:38.650Z,99736.44
2023-03-12T03:01:45.850Z,99739.03
2023-03-12T03:06:52.794Z,99739.91
2023-03-12T03:12:01.179Z,99748.41
2023-03-12T03:17:10.295Z,99764.69
2023-03-12T03:22:16.975Z,99765.53
2023-03-12T03:27:24.983Z,99774.13
2023-03-12T03:32:32.954Z,99779.25
2023-03-12T03:37:39.768Z,99776.72
2023-03-12T03:42:47.946Z,99780.13
2023-03-12T03:47:54.959Z,99782.69
2023-03-12T03:53:01.760Z,99775.91
2023-03-12T03:58:10.205Z,99779.31
2023-03-12T04:03:18.692Z,99776.75
2023-03-12T04:08:25.358Z,99786.19
2023-03-12T04:13:33.230Z,99783.63
2023-03-12T04:18:40.669Z,99792.19
2023-03-12T04:23:47.801Z,99789.63
2023-03-12T04:28:56.882Z,99775.09
2023-03-12T04:34:04.251Z,99778.53
2023-03-12T04:39:11.271Z,99775.13
2023-03-12T04:44:19.426Z,99779.38
2023-03-12T04:49:26.134Z,99787.09
2023-03-12T04:54:34.565Z,99799.06
2023-03-12T04:59:43.094Z,99785.41
2023-03-12T05:04:49.777Z,99797.38
2023-03-12T05:09:56.839Z,99796.53
2023-03-12T05:15:05.480Z,99806.78
2023-03-12T05:20:14.168Z,99816.22
2023-03-12T05:25:21.517Z,99818.78
2023-03-12T05:30:29.304Z,99813.66
2023-03-12T05:35:35.878Z,99822.22
2023-03-12T05:40:42.284Z,99828.19
2023-03-12T05:45:51.397Z,99835.91
2023-03-12T05:50:58.827Z,99841.03
2023-03-12T05:56:07.374Z,99852.16
2023-03-12T06:01:18.331Z,99855.63
2023-03-12T06:06:25.349Z,99849.63
2023-03-12T06:11:33.726Z,99864.19
2023-03-12T06:16:41.889Z,99865.88
2023-03-12T06:21:49.049Z,99873.63
2023-03-12T06:26:56.138Z,99882.19
2023-03-12T06:32:04.260Z,99889.03
2023-03-12T06:37:12.113Z,99895.00
2023-03-12T06:42:20.064Z,99899.31
2023-03-12T06:47:28.089Z,99913.00
2023-03-12T06:52:34.741Z,99917.31
2023-03-12T06:57:41.314Z,99925.88
2023-03-12T07:02:49.400Z,99934.44
2023-03-12T07:07:58.525Z,99939.59
2023-03-12T07:13:05.012Z,99933.59
2023-03-12T07:18:14.726Z,99940.47
2023-03-12T07:23:21.582Z,99945.63
2023-03-12T07:28:28.260Z,99946.47
2023-03-12T07:33:37.001Z,99954.22
2023-03-12T07:38:43.735Z,99966.22
2023-03-12T07:43:50.215Z,99973.97
2023-03-12T07:48:58.069Z,99974.78
2023-03-12T07:54:04.666Z,99984.19
2023-03-12T07:59:11.448Z,100000.44
2023-03-12T08:04:19.897Z,100003.88
2023-03-12T08:09:29.801Z,100005.63
2023-03-12T08:14:37.221Z,100014.19
2023-03-12T08:19:48.550Z,100024.47
2023-03-12T08:24:55.490Z,100018.50
2023-03-12T08:30:02.503Z,100023.66
2023-03-12T08:35:11.890Z,100051.13
2023-03-12T08:40:19.155Z,100036.56
2023-03-12T08:45:25.731Z,100034.00
2023-03-12T08:50:33.731Z,100044.25
2023-03-12T08:55:40.194Z,100046.00
2023-03-12T09:00:46.532Z,100049.44
2023-03-12T09:06:06.630Z,100055.50
2023-03-12T09:11:14.958Z,100058.91
2023-03-12T09:16:21.604Z,100054.66
2023-03-12T09:21:31.648Z,100058.09
2023-03-12T09:26:38.397Z,100061.56
2023-03-12T09:31:44.977Z,100067.56
2023-03-12T09:36:52.887Z,100073.53
2023-03-12T09:41:59.576Z,100090.69
2023-03-12T09:47:12.957Z,100097.56
2023-03-12T09:52:30.063Z,100095.00
2023-03-12T09:57:37.074Z,100091.59
2023-03-12T10:03:20.072Z,100101.00
2023-03-12T10:08:41.992Z,100105.31
2023-03-12T10:14:23.365Z,100107.03
2023-03-12T10:19:57.325Z,100111.34
2023-03-12T10:25:18.233Z,100113.06
2023-03-12T10:30:28.616Z,100119.09
2023-03-12T10:35:35.658Z,100118.22
2023-03-12T10:40:44.310Z,100135.38
2023-03-12T10:46:04.806Z,100136.22
2023-03-12T10:51:15.419Z,100135.38
2023-03-12T10:56:23.386Z,100139.69
2023-03-12T11:01:32.815Z,100133.72
2023-03-12T11:06:39.720Z,100146.59
2023-03-12T11:11:50.352Z,100143.16
2023-03-12T11:16:58.567Z,100155.19
2023-03-12T11:22:11.883Z,100163.78
2023-03-12T11:27:32.635Z,100147.44
2023-03-12T11:32:43.452Z,100152.56
2023-03-12T11:38:05.198Z,100145.69
2023-03-12T11:43:50.516Z,100148.22
2023-03-12T11:49:13.306Z,100162.84
2023-03-12T11:55:00.730Z,100156.00
2023-03-12T12:00:18.817Z,100164.59
2023-03-12T12:05:40.105Z,100171.47
2023-03-12T12:11:00.355Z,100159.41
2023-03-12T12:16:42.296Z,100167.09
2023-03-12T12:22:05.324Z,100165.41
2023-03-12T12:27:22.466Z,100175.72
2023-03-12T12:32:48.367Z,100180.88
2023-03-12T12:38:01.713Z,100180.00
2023-03-12T12:43:25.687Z,100201.53
2023-03-12T12:48:38.528Z,100198.06
2023-03-12T12:53:55.518Z,100194.63
2023-03-12T12:59:26.786Z,100204.09
2023-03-12T13:04:39.210Z,100207.50
2023-03-12T13:09:48.340Z,100214.38
2023-03-12T13:14:57.914Z,100227.25
2023-03-12T13:20:21.556Z,100224.66
2023-03-12T13:25:52.882Z,100241.03
2023-03-12T13:31:01.970Z,100244.44
2023-03-12T13:36:23.989Z,100241.84
2023-03-12T13:41:38.517Z,100247.03
2023-03-12T13:46:49.341Z,100258.25
2023-03-12T13:52:25.864Z,100253.09
2023-03-12T13:57:41.224Z,100246.19
2023-03-12T14:03:00.588Z,100249.59
2023-03-12T14:08:30.664Z,100248.81
2023-03-12T14:14:06.268Z,100248.81
2023-03-12T14:19:16.473Z,100253.09
2023-03-12T14:24:33.274Z,100259.94
2023-03-12T14:29:45.487Z,100264.25
2023-03-12T14:34:59.838Z,100261.72
2023-03-12T14:40:22.551Z,100264.28
2023-03-12T14:45:30.479Z,100270.31
2023-03-12T14:50:41.779Z,100274.59
2023-03-12T14:56:06.233Z,100274.59
2023-03-12T15:01:19.455Z,100290.09
2023-03-12T15:06:33.427Z,100286.66
2023-03-12T15:11:43.367Z,100295.22
2023-03-12T15:16:55.052Z,100298.69
2023-03-12T15:22:03.754Z,100292.66
2023-03-12T15:27:35.337Z,100290.94
2023-03-12T15:32:43.422Z,100300.41
2023-03-12T15:37:55.872Z,100296.94
2023-03-12T15:43:08.051Z,100292.66
2023-03-12T15:48:28.285Z,100297.84
2023-03-12T15:53:40.835Z,100297.81
2023-03-12T15:59:00.425Z,100297.81
2023-03-12T16:04:11.556Z,100303.84
2023-03-12T16:09:27.175Z,100309.84
2023-03-12T16:14:37.606Z,100321.88
2023-03-12T16:19:47.118Z,100322.72
2023-03-12T16:24:57.951Z,100325.31
2023-03-12T16:30:15.333Z,100327.88
2023-03-12T16:35:24.253Z,100329.56
2023-03-12T16:40:37.756Z,100343.34
2023-03-12T16:45:52.541Z,100341.59
2023-03-12T16:51:07.671Z,100344.16
2023-03-12T16:56:20.613Z,100348.41
2023-03-12T17:01:30.653Z,100343.25
2023-03-12T17:06:41.130Z,100345.78
2023-03-12T17:11:51.872Z,100350.94
2023-03-12T17:17:02.978Z,100356.03
2023-03-12T17:22:12.285Z,100367.16
2023-03-12T17:27:22.224Z,100367.13
2023-03-12T17:32:34.437Z,100372.22
2023-03-12T17:37:44.222Z,100375.56
2023-03-12T17:42:54.469Z,100383.25
2023-03-12T17:48:04.942Z,100365.97
2023-03-12T17:53:16.881Z,100374.59
2023-03-12T17:58:27.253Z,100374.53
2023-03-12T18:03:39.679Z,100397.66
2023-03-12T18:08:48.738Z,100401.94
2023-03-12T18:13:56.921Z,100407.00
2023-03-12T18:19:06.727Z,100412.13
2023-03-12T18:24:14.905Z,100418.91
2023-03-12T18:29:24.465Z,100417.00
2023-03-12T18:34:36.458Z,100418.63
2023-03-12T18:39:47.161Z,100410.00
2023-03-12T18:45:00.186Z,100407.31
2023-03-12T18:50:15.678Z,100408.09
2023-03-12T18:55:26.669Z,100402.91
2023-03-12T19:00:36.683Z,100397.72
2023-03-12T19:05:49.454Z,100390.84
2023-03-12T19:11:00.573Z,100387.41
2023-03-12T19:16:18.780Z,100398.59
2023-03-12T19:21:39.584Z,100412.28
2023-03-12T19:26:49.946Z,100417.47
2023-03-12T19:32:00.985Z,100403.75
2023-03-12T19:37:15.759Z,100415.78
2023-03-12T19:42:26.930Z,100424.41
2023-03-12T19:47:37.439Z,100420.94
2023-03-12T19:52:50.141Z,100435.50
2023-03-12T19:58:03.852Z,100446.63
2023-03-12T20:03:15.200Z,100432.00
2023-03-12T20:08:30.328Z,100427.63
2023-03-12T20:13:41.732Z,100434.47
2023-03-12T20:18:52.883Z,100437.78
2023-03-12T20:24:07.155Z,100430.91
2023-03-12T20:29:17.811Z,100425.78
2023-03-12T20:34:28.491Z,100420.47
2023-03-12T20:39:49.620Z,100410.00
2023-03-12T20:45:00.404Z,100405.78
2023-03-12T20:50:09.940Z,100414.28
2023-03-12T20:55:21.665Z,100410.78
2023-03-12T21:00:31.285Z,100395.78
2023-03-12T21:05:41.352Z,100397.59
2023-03-12T21:10:53.095Z,100396.53
2023-03-12T21:16:05.056Z,100395.56
2023-03-12T21:21:15.024Z,100395.47
2023-03-12T21:26:23.939Z,100391.88
2023-03-12T21:31:32.797Z,100386.47
2023-03-12T21:36:41.197Z,100383.16
2023-03-12T21:41:50.433Z,100373.88
2023-03-12T21:46:56.552Z,100374.91
2023-03-12T21:52:03.446Z,100370.63
2023-03-12T21:57:11.641Z,100366.41
2023-03-12T22:02:18.325Z,100360.88
2023-03-12T22:07:24.956Z,100365.25
2023-03-12T22:12:33.079Z,100355.97
2023-03-12T22:17:39.668Z,100358.66
2023-03-12T22:22:46.363Z,100362.19
2023-03-12T22:27:54.689Z,100344.94
2023-03-12T22:33:01.062Z,100333.72
2023-03-12T22:38:07.563Z,100331.25
2023-03-12T22:43:15.868Z,100320.28
2023-03-12T22:48:22.516Z,100320.34
2023-03-12T22:53:29.156Z,100318.66
2023-03-12T22:58:38.047Z,100312.66
2023-03-12T23:03:46.302Z,100303.34
2023-03-12T23:08:52.963Z,100311.09
2023-03-12T23:14:00.755Z,100312.03
2023-03-12T23:19:07.271Z,100277.06
2023-03-12T23:24:13.556Z,100265.09
2023-03-12T23:29:21.546Z,100278.00
2023-03-12T23:34:28.585Z,100278.94
2023-03-12T23:39:44.980Z,100284.06
2023-03-12T23:44:59.887Z,100278.13
2023-03-12T23:50:07.777Z,100282.44
2023-03-12T23:55:14.573Z,100282.47
